Terminal Aerodrome Forecast
Issued by NWS

Home | Current Version | Previous Version | Text Only | Print | Product List | Glossary On
Versions: 1 2 3 4 5 6 7 8 9 10 11 12 13 14 15 16 17 18 19 20 21 22 23 24 25
406
FTUS41 KBUF 272103 AAA
TAFIAG
TAF AMD
KIAG 272103Z 2721/2818 23018G25KT P6SM SCT070
     FM272300 22014KT P6SM BKN060
     FM280100 22007KT P6SM VCSH BKN050
     FM280400 16005KT P6SM FEW050 SCT060
     FM281400 15009KT P6SM SCT060 SCT120=

USA.gov is the U.S. government's official web portal to all federal, state and local government web resources and services.